KTIK/TIK METAR and TAF weather

Enter ICAO airport designator
Station Type Date Time Source
KTIK METAR 2021/09/16 19:56 UTC NOAA

KTIK 161956Z AUTO 19011KT 10SM CLR 32/17 A2990 RMK AO2 SLP117 T03190166


Station Type Date Time Source
KTIK Decoded METAR 2021/09/16 19:56 UTC NOAA

Tinker Air Force Base, OK, United States (KTIK) 35-25N 097-23W 397M
Sep 16, 2021 - 03:56 PM EDT / 2021.09.16 1956 UTC
Wind: from the S (190 degrees) at 13 MPH (11 KT):0
Visibility: 10 mile(s):0
Sky conditions: clear
Temperature: 89.4 F (31.9 C)
Dew Point: 61.9 F (16.6 C)
Relative Humidity: 39%
Pressure (altimeter): 29.9 in. Hg (1012 hPa)
ob: KTIK 161956Z AUTO 19011KT 10SM CLR 32/17 A2990 RMK AO2 SLP117 T03190166
cycle: 20

Station Type Date Time Source
KTIK TAF 2021/09/16 17:06 UTC NOAA

TAF TAF KTIK 161700Z 1617/1723 17009KT 9999 SCT050 QNH2988INS
BECMG 1717/1718 10006KT 9999 FEW050 QNH2992INS TX32/1621Z TN20/1712Z

Example: see airport list